This is the latest recevied weather packets stored in our database for station/object AD5L. If no packets are shown the sender has not sent any weather packets the latest 10 day(s).
| Time | Temp. | Humidity | Pressure | Rain* | Wind** | Luminosity | Snow |
|---|---|---|---|---|---|---|---|
| 1777316602 | 32.78° C | 65% | 1010 hPa | 0 mm | - | - | - |
| 1777316012 | 32.78° C | 64% | 1010.1 hPa | 0 mm | - | - | - |
| 1777314811 | 32.78° C | 64% | 1010.3 hPa | 0 mm | - | - | - |
| 1777314221 | 32.78° C | 63% | 1010.4 hPa | 0 mm | - | - | - |
| 1777313608 | 32.22° C | 65% | 1010.6 hPa | 0 mm | - | - | - |
| 1777313017 | 32.22° C | 65% | 1010.6 hPa | 0 mm | - | - | - |
| 1777312402 | 31.67° C | 67% | 1010.6 hPa | 0 mm | - | - | - |
| 1777311809 | 31.67° C | 68% | 1010.7 hPa | 0 mm | - | - | - |
| 1777311216 | 31.11° C | 69% | 1010.6 hPa | 0 mm | - | - | - |
| 1777310603 | 31.11° C | 68% | 1010.7 hPa | 0 mm | - | - | - |
| 1777310010 | 31.11° C | 69% | 1010.8 hPa | 0 mm | - | - | - |
| 1777309415 | 30.56° C | 71% | 1010.8 hPa | 0 mm | - | - | - |
| 1777308822 | 30.56° C | 72% | 1010.8 hPa | 0 mm | - | - | - |
| 1777307612 | 29.44° C | 75% | 1010.7 hPa | 0 mm | - | - | - |
| 1777306421 | 28.89° C | 79% | 1010.7 hPa | 0 mm | - | - | - |
| 1777305809 | 27.78° C | 80% | 1010.7 hPa | 0 mm | - | - | - |
| 1777305218 | 27.78° C | 80% | 1010.9 hPa | 0 mm | - | - | - |
| 1777304603 | 27.78° C | 82% | 1010.8 hPa | 0 mm | - | - | - |
| 1777304009 | 27.22° C | 82% | 1011 hPa | 0 mm | - | - | - |
| 1777303417 | 26.67° C | 84% | 1010.9 hPa | 0 mm | - | - | - |
| 1777302808 | 26.67° C | 84% | 1010.8 hPa | 0 mm | - | - | - |
| 1777302214 | 26.11° C | 86% | 1010.7 hPa | 0 mm | - | - | - |
| 1777301603 | 26.11° C | 85% | 1010.9 hPa | 0 mm | - | - | - |
| 1777301009 | 25.56° C | 87% | 1010.7 hPa | 0 mm | - | - | - |
| 1777300416 | 25.56° C | 88% | 1010.7 hPa | 0 mm | - | - | - |
* Rain latest hour (hover to see other rain measurements)
** Current wind speed in m/s (hover to see current wind gust speed)